Time;durP1;ratioP1;P1;durP2;ratioP2;P2;SDS_P1;SDS_P2;PMS_P1;PMS_P2;Temp;Humidity;BMP_temperature;BMP_pressure;BME280_temperature;BME280_humidity;BME280_pressure;Samples;Min_cycle;Max_cycle;Signal;HPM_P1;HPM_P2
2022/12/26 00:01:05;;;;;;;18.55;8.48;;;;;;;;;;4963728;28;20027;-58
2022/12/26 00:03:30;;;;;;;15.65;8.65;;;;;;;;;;4968826;28;20038;-59
2022/12/26 00:05:55;;;;;;;16.85;8.48;;;;;;;;;;4963694;28;20034;-59
2022/12/26 00:08:21;;;;;;;19.55;8.82;;;;;;;;;;4965619;28;20030;-59
2022/12/26 00:10:46;;;;;;;17.73;9.07;;;;;;;;;;4971747;28;20030;-59
2022/12/26 00:13:11;;;;;;;18.25;8.60;;;;;;;;;;4964124;28;20149;-58
2022/12/26 00:15:39;;;;;;;17.73;9.07;;;;;;;;;;4969360;28;20038;-58
2022/12/26 00:18:04;;;;;;;19.48;9.05;;;;;;;;;;4966177;28;20555;-59
2022/12/26 00:20:29;;;;;;;18.67;8.85;;;;;;;;;;4959323;28;20209;-58
2022/12/26 00:22:55;;;;;;;15.55;9.18;;;;;;;;;;4970080;28;20042;-58
2022/12/26 00:25:20;;;;;;;17.30;8.70;;;;;;;;;;4964336;28;20117;-58
2022/12/26 00:27:45;;;;;;;23.60;9.15;;;;;;;;;;4980279;28;20445;-58
2022/12/26 00:30:11;;;;;;;17.02;8.63;;;;;;;;;;4963925;28;20702;-59
2022/12/26 00:32:36;;;;;;;17.42;8.32;;;;;;;;;;4969797;28;20754;-59
2022/12/26 00:35:01;;;;;;;15.52;8.52;;;;;;;;;;4968160;28;20804;-59
2022/12/26 00:37:27;;;;;;;15.63;8.55;;;;;;;;;;4965526;28;20031;-58
2022/12/26 00:39:52;;;;;;;15.85;8.65;;;;;;;;;;4966727;28;20584;-59
2022/12/26 00:42:17;;;;;;;18.13;8.70;;;;;;;;;;4979002;28;20035;-59
2022/12/26 00:44:42;;;;;;;14.52;8.43;;;;;;;;;;4964667;28;20086;-59
2022/12/26 00:47:08;;;;;;;12.45;7.75;;;;;;;;;;4964169;28;20030;-58
2022/12/26 00:49:33;;;;;;;16.83;7.95;;;;;;;;;;4969476;28;20034;-59
2022/12/26 00:51:58;;;;;;;18.40;8.70;;;;;;;;;;4969864;28;20031;-58
2022/12/26 00:54:24;;;;;;;16.50;8.50;;;;;;;;;;4963934;28;20829;-60
2022/12/26 00:56:49;;;;;;;12.45;7.60;;;;;;;;;;4964810;28;20094;-58
2022/12/26 00:59:14;;;;;;;14.05;7.35;;;;;;;;;;4952400;28;20033;-58
2022/12/26 01:01:40;;;;;;;15.93;7.50;;;;;;;;;;4961600;28;20486;-58
2022/12/26 01:04:05;;;;;;;13.88;7.28;;;;;;;;;;4969244;28;20120;-59
2022/12/26 01:06:30;;;;;;;15.00;7.47;;;;;;;;;;4964046;28;20031;-59
2022/12/26 01:08:56;;;;;;;17.25;8.00;;;;;;;;;;4964080;28;20103;-58
2022/12/26 01:11:39;;;;;;;14.68;7.65;;;;;;;;;;4965705;28;20030;-60
2022/12/26 01:14:06;;;;;;;18.45;7.25;;;;;;;;;;4964384;28;20049;-59
2022/12/26 01:16:31;;;;;;;18.27;7.03;;;;;;;;;;4966989;28;20037;-58
2022/12/26 01:18:56;;;;;;;20.27;6.85;;;;;;;;;;4962988;28;20023;-58
2022/12/26 01:21:22;;;;;;;12.40;6.55;;;;;;;;;;4962592;28;20181;-58
2022/12/26 01:23:47;;;;;;;13.77;7.05;;;;;;;;;;4969014;28;20035;-58
2022/12/26 01:26:12;;;;;;;12.93;7.28;;;;;;;;;;4960367;28;20713;-58
2022/12/26 01:28:37;;;;;;;16.27;8.02;;;;;;;;;;4965610;28;20051;-59
2022/12/26 01:31:03;;;;;;;12.43;7.22;;;;;;;;;;4963542;28;20393;-60
2022/12/26 01:33:29;;;;;;;17.20;7.32;;;;;;;;;;4968089;28;20480;-59
2022/12/26 01:35:55;;;;;;;12.25;6.25;;;;;;;;;;4972589;28;20177;-58
2022/12/26 01:38:21;;;;;;;12.55;6.40;;;;;;;;;;4965736;28;20026;-59
2022/12/26 01:40:47;;;;;;;10.07;6.32;;;;;;;;;;4966928;28;20782;-59
2022/12/26 01:43:13;;;;;;;10.07;5.78;;;;;;;;;;4963492;28;20049;-59
2022/12/26 01:45:39;;;;;;;15.27;7.72;;;;;;;;;;4965423;28;20140;-57
2022/12/26 01:48:04;;;;;;;14.93;9.57;;;;;;;;;;4972249;28;21547;-58
2022/12/26 01:50:48;;;;;;;13.25;6.63;;;;;;;;;;4966564;28;20027;-58
2022/12/26 01:53:23;;;;;;;13.20;6.75;;;;;;;;;;4964683;28;20905;-58
2022/12/26 01:55:53;;;;;;;12.35;7.03;;;;;;;;;;4971697;28;20031;-58
2022/12/26 01:58:22;;;;;;;10.30;6.47;;;;;;;;;;4968579;28;20062;-58
2022/12/26 02:00:48;;;;;;;10.98;6.75;;;;;;;;;;4970647;28;20032;-61
2022/12/26 02:05:58;;;;;;;14.18;7.60;;;;;;;;;;4967392;28;20039;-59
2022/12/26 02:08:27;;;;;;;13.50;7.38;;;;;;;;;;4972066;28;20050;-58
2022/12/26 02:10:58;;;;;;;11.27;5.90;;;;;;;;;;4968524;28;20834;-59
2022/12/26 02:13:24;;;;;;;11.60;6.35;;;;;;;;;;4961487;28;20316;-57
2022/12/26 02:15:49;;;;;;;12.95;6.22;;;;;;;;;;4971106;28;20397;-59
2022/12/26 02:18:14;;;;;;;12.18;6.43;;;;;;;;;;4966689;28;20168;-59
2022/12/26 02:20:44;;;;;;;9.05;5.85;;;;;;;;;;4971849;28;20088;-58
2022/12/26 02:23:09;;;;;;;9.80;6.18;;;;;;;;;;4968349;28;20026;-59
2022/12/26 02:25:54;;;;;;;16.83;6.13;;;;;;;;;;4968105;28;20273;-58
2022/12/26 02:28:25;;;;;;;11.98;6.72;;;;;;;;;;4977495;28;20122;-57
2022/12/26 02:30:55;;;;;;;10.88;6.78;;;;;;;;;;4969404;28;20060;-58
2022/12/26 02:33:21;;;;;;;10.85;6.45;;;;;;;;;;4964409;28;20045;-59
2022/12/26 02:35:52;;;;;;;10.02;6.30;;;;;;;;;;4969998;28;20026;-59
2022/12/26 02:38:33;;;;;;;13.30;6.20;;;;;;;;;;4967941;28;20031;-58
2022/12/26 02:41:14;;;;;;;11.57;6.18;;;;;;;;;;4972402;28;20030;-57
2022/12/26 02:43:42;;;;;;;10.57;5.28;;;;;;;;;;4966563;28;20034;-59
2022/12/26 02:49:04;;;;;;;9.35;5.93;;;;;;;;;;4968317;28;20034;-58
2022/12/26 03:13:09;;;;;;;11.40;5.90;;;;;;;;;;4966261;28;20335;-59
2022/12/26 03:14:16;;;;;;;9.73;5.03;;;;;;;;;;4966976;28;20033;-59
2022/12/26 03:19:30;;;;;;;11.45;5.80;;;;;;;;;;4963354;28;20483;-58
2022/12/26 03:21:57;;;;;;;11.00;5.30;;;;;;;;;;4962734;28;20038;-59
2022/12/26 03:24:22;;;;;;;8.77;5.47;;;;;;;;;;4966868;28;20026;-56
2022/12/26 03:26:51;;;;;;;14.30;5.95;;;;;;;;;;4965283;28;20397;-58
2022/12/26 03:32:04;;;;;;;8.20;5.30;;;;;;;;;;4963504;28;20687;-59
2022/12/26 03:34:29;;;;;;;8.63;5.47;;;;;;;;;;4965234;28;20030;-58
2022/12/26 03:37:05;;;;;;;9.52;5.55;;;;;;;;;;4973452;28;20433;-58
2022/12/26 04:19:25;;;;;;;13.63;7.38;;;;;;;;;;4958882;28;20085;-57
2022/12/26 04:44:22;;;;;;;9.30;6.40;;;;;;;;;;4962992;28;20037;-57
2022/12/26 04:46:47;;;;;;;9.85;6.30;;;;;;;;;;4965524;28;20121;-59
2022/12/26 04:51:58;;;;;;;10.02;6.10;;;;;;;;;;4967148;28;20039;-60
2022/12/26 04:54:24;;;;;;;9.60;6.68;;;;;;;;;;4965819;28;20571;-60
2022/12/26 04:56:49;;;;;;;13.35;6.68;;;;;;;;;;4965246;28;20670;-59
2022/12/26 04:59:15;;;;;;;10.57;6.13;;;;;;;;;;4965019;28;20030;-57
2022/12/26 05:09:58;;;;;;;8.93;5.65;;;;;;;;;;4973172;28;20030;-57
2022/12/26 05:12:24;;;;;;;11.00;5.75;;;;;;;;;;4970341;28;20790;-58
2022/12/26 05:14:49;;;;;;;12.98;5.57;;;;;;;;;;4966249;28;20038;-58
2022/12/26 05:28:40;;;;;;;10.82;6.65;;;;;;;;;;4932962;28;20094;-60
2022/12/26 05:28:57;;;;;;;9.20;6.07;;;;;;;;;;4967937;28;20023;-58
2022/12/26 05:31:23;;;;;;;13.32;6.13;;;;;;;;;;4962922;28;20108;-58
2022/12/26 05:34:07;;;;;;;11.25;5.63;;;;;;;;;;4975504;28;20022;-58
2022/12/26 05:37:05;;;;;;;8.48;5.95;;;;;;;;;;4970064;28;20110;-58
2022/12/26 05:39:30;;;;;;;9.15;5.80;;;;;;;;;;4929616;28;20133;-58
2022/12/26 05:41:55;;;;;;;10.77;5.97;;;;;;;;;;4972356;28;20038;-58
2022/12/26 05:44:21;;;;;;;10.43;6.18;;;;;;;;;;4970785;28;20485;-58
2022/12/26 05:46:46;;;;;;;11.45;6.40;;;;;;;;;;4972554;28;20069;-58
2022/12/26 05:49:12;;;;;;;8.80;6.00;;;;;;;;;;4963915;28;20585;-58
2022/12/26 05:51:37;;;;;;;7.40;5.35;;;;;;;;;;4968707;28;20065;-58
2022/12/26 05:54:03;;;;;;;10.40;6.20;;;;;;;;;;4974031;28;20035;-58
2022/12/26 05:56:28;;;;;;;11.20;6.30;;;;;;;;;;4968010;28;20030;-58
2022/12/26 05:58:58;;;;;;;7.97;5.13;;;;;;;;;;4971675;28;20026;-58
2022/12/26 06:01:24;;;;;;;8.90;5.10;;;;;;;;;;4973130;28;20127;-60
2022/12/26 06:03:51;;;;;;;9.57;5.00;;;;;;;;;;4967904;28;20038;-58
2022/12/26 06:06:16;;;;;;;7.35;5.10;;;;;;;;;;4968290;28;20752;-59
2022/12/26 06:08:42;;;;;;;10.10;5.18;;;;;;;;;;4969204;28;20052;-58
2022/12/26 06:11:11;;;;;;;9.90;5.25;;;;;;;;;;4968566;28;20410;-59
2022/12/26 06:13:36;;;;;;;8.15;5.18;;;;;;;;;;4973088;28;20121;-58
2022/12/26 06:16:06;;;;;;;8.98;4.30;;;;;;;;;;4966457;28;20104;-58
2022/12/26 06:18:31;;;;;;;7.43;4.00;;;;;;;;;;4969562;28;20030;-59
2022/12/26 06:20:57;;;;;;;9.00;4.20;;;;;;;;;;4971995;28;20034;-58
2022/12/26 06:23:22;;;;;;;5.88;3.65;;;;;;;;;;4966630;28;20884;-59
2022/12/26 06:25:54;;;;;;;7.47;3.95;;;;;;;;;;4968569;28;20038;-58
2022/12/26 06:28:20;;;;;;;6.60;3.65;;;;;;;;;;4969395;28;20030;-58
2022/12/26 06:30:45;;;;;;;5.90;3.28;;;;;;;;;;4972301;28;20034;-58
2022/12/26 06:33:10;;;;;;;6.63;3.40;;;;;;;;;;4965710;28;20108;-59
2022/12/26 06:35:36;;;;;;;5.78;3.83;;;;;;;;;;4965988;28;20444;-59
2022/12/26 06:38:01;;;;;;;6.82;3.83;;;;;;;;;;4975943;28;20485;-58
2022/12/26 06:40:26;;;;;;;6.82;3.83;;;;;;;;;;4967774;28;20580;-58
2022/12/26 06:42:52;;;;;;;6.10;3.25;;;;;;;;;;4968391;28;20035;-58
2022/12/26 06:45:17;;;;;;;5.15;2.95;;;;;;;;;;4964446;28;20200;-58
2022/12/26 06:47:42;;;;;;;4.50;2.90;;;;;;;;;;4963022;28;20443;-59
2022/12/26 06:50:08;;;;;;;5.43;3.13;;;;;;;;;;4970044;28;20027;-58
2022/12/26 06:52:33;;;;;;;8.70;3.28;;;;;;;;;;4966008;28;20031;-60
2022/12/26 06:54:58;;;;;;;6.38;3.25;;;;;;;;;;4970548;28;20486;-58
2022/12/26 06:57:24;;;;;;;5.15;3.03;;;;;;;;;;4968205;28;20038;-58
2022/12/26 06:59:49;;;;;;;5.05;2.70;;;;;;;;;;4969152;28;20021;-59
2022/12/26 07:02:14;;;;;;;7.57;3.30;;;;;;;;;;4968378;28;20104;-59
2022/12/26 07:04:40;;;;;;;6.40;3.35;;;;;;;;;;4971172;28;20042;-58
2022/12/26 07:07:05;;;;;;;5.28;3.03;;;;;;;;;;4971712;28;20030;-58
2022/12/26 07:09:30;;;;;;;5.78;2.90;;;;;;;;;;4967744;28;20038;-58
2022/12/26 07:11:56;;;;;;;7.30;3.20;;;;;;;;;;4965074;28;20544;-58
2022/12/26 07:14:21;;;;;;;5.75;3.20;;;;;;;;;;4971256;28;20109;-58
2022/12/26 07:16:46;;;;;;;4.90;3.00;;;;;;;;;;4970776;28;20041;-58
2022/12/26 07:19:12;;;;;;;7.35;3.47;;;;;;;;;;4968939;28;20035;-58
2022/12/26 07:21:38;;;;;;;6.47;3.15;;;;;;;;;;4966663;28;20038;-58
2022/12/26 07:24:03;;;;;;;9.77;3.42;;;;;;;;;;4967508;28;20027;-59
2022/12/26 07:26:28;;;;;;;5.90;3.20;;;;;;;;;;4972770;28;20058;-57
2022/12/26 07:28:54;;;;;;;12.77;5.18;;;;;;;;;;4965596;28;20134;-59
2022/12/26 07:31:20;;;;;;;8.40;4.30;;;;;;;;;;4970162;28;20034;-58
2022/12/26 07:33:47;;;;;;;8.77;4.85;;;;;;;;;;4962701;28;20636;-58
2022/12/26 07:36:12;;;;;;;;;;;;;;;;;;4969735;28;20045;-58
2022/12/26 07:38:38;;;;;;;7.93;4.43;;;;;;;;;;4967078;28;19918;-59
2022/12/26 07:41:56;;;;;;;7.28;4.20;;;;;;;;;;4970728;28;20029;-58
2022/12/26 07:43:48;;;;;;;43.83;6.80;;;;;;;;;;4968993;28;20034;-60
2022/12/26 07:46:14;;;;;;;12.73;4.50;;;;;;;;;;4970209;28;20076;-59
2022/12/26 07:48:39;;;;;;;8.45;5.10;;;;;;;;;;4966223;28;20030;-59
2022/12/26 07:51:04;;;;;;;5.60;3.75;;;;;;;;;;4970601;28;20034;-57
2022/12/26 07:53:30;;;;;;;10.70;4.07;;;;;;;;;;4963129;28;20041;-61
2022/12/26 07:55:58;;;;;;;6.55;3.58;;;;;;;;;;4965503;28;20053;-59
2022/12/26 07:58:24;;;;;;;7.07;3.67;;;;;;;;;;4969801;28;20054;-58
2022/12/26 08:00:49;;;;;;;7.57;4.45;;;;;;;;;;4965644;28;20030;-59
2022/12/26 08:03:14;;;;;;;7.05;4.30;;;;;;;;;;4969579;28;20050;-59
2022/12/26 08:05:43;;;;;;;6.85;4.30;;;;;;;;;;4964693;28;20038;-58
2022/12/26 08:08:08;;;;;;;9.70;4.47;;;;;;;;;;4967019;28;20085;-60
2022/12/26 08:10:33;;;;;;;7.28;4.82;;;;;;;;;;4970150;28;20476;-58
2022/12/26 08:12:59;;;;;;;9.10;5.72;;;;;;;;;;4963709;28;20030;-57
2022/12/26 08:15:24;;;;;;;9.80;6.03;;;;;;;;;;4972619;28;20061;-58
2022/12/26 08:17:49;;;;;;;10.55;6.68;;;;;;;;;;4964188;28;20105;-59
2022/12/26 08:20:15;;;;;;;9.27;6.00;;;;;;;;;;4964333;28;20033;-59
2022/12/26 08:22:40;;;;;;;8.88;5.72;;;;;;;;;;4967492;28;20097;-58
2022/12/26 08:25:06;;;;;;;12.05;6.35;;;;;;;;;;4962053;28;20026;-58
2022/12/26 08:27:31;;;;;;;11.10;6.35;;;;;;;;;;4970625;28;20117;-59
2022/12/26 08:29:56;;;;;;;12.13;7.00;;;;;;;;;;4965672;28;20026;-58
2022/12/26 08:32:21;;;;;;;12.55;6.88;;;;;;;;;;4960405;28;20034;-58
2022/12/26 08:34:47;;;;;;;14.02;7.60;;;;;;;;;;4971500;28;20829;-59
2022/12/26 08:37:12;;;;;;;12.02;7.03;;;;;;;;;;4963521;28;20093;-58
2022/12/26 08:39:37;;;;;;;11.82;6.43;;;;;;;;;;4969906;28;20081;-58
2022/12/26 08:42:03;;;;;;;10.57;6.78;;;;;;;;;;4962694;28;20046;-59
2022/12/26 08:44:28;;;;;;;11.52;7.07;;;;;;;;;;4966174;28;20034;-59
2022/12/26 08:46:53;;;;;;;11.43;6.80;;;;;;;;;;4969359;28;20040;-58
2022/12/26 08:49:19;;;;;;;10.25;6.72;;;;;;;;;;4982392;28;20109;-58
2022/12/26 08:51:44;;;;;;;11.48;6.93;;;;;;;;;;4966773;28;20035;-58
2022/12/26 08:54:09;;;;;;;8.48;6.20;;;;;;;;;;4964904;28;20125;-58
2022/12/26 08:56:35;;;;;;;11.70;7.22;;;;;;;;;;4965515;28;20066;-59
2022/12/26 08:59:00;;;;;;;11.93;7.22;;;;;;;;;;4969717;28;20049;-58
2022/12/26 09:01:27;;;;;;;15.25;7.47;;;;;;;;;;4962625;28;20783;-58
2022/12/26 09:03:52;;;;;;;11.35;7.72;;;;;;;;;;4968709;28;20046;-60
2022/12/26 09:06:19;;;;;;;11.68;7.55;;;;;;;;;;4966174;28;20065;-58
2022/12/26 09:08:44;;;;;;;11.20;7.53;;;;;;;;;;4966719;28;20508;-58
2022/12/26 09:11:11;;;;;;;11.70;7.68;;;;;;;;;;4971155;28;20154;-58
2022/12/26 09:13:37;;;;;;;12.65;6.88;;;;;;;;;;4966195;28;20031;-58
2022/12/26 09:16:04;;;;;;;10.57;6.03;;;;;;;;;;4968861;28;20074;-58
2022/12/26 09:18:30;;;;;;;11.77;6.72;;;;;;;;;;4977650;28;20108;-59
2022/12/26 09:20:58;;;;;;;17.13;7.35;;;;;;;;;;4963256;28;20122;-58
2022/12/26 09:23:23;;;;;;;11.80;6.55;;;;;;;;;;4984505;28;20401;-57
2022/12/26 09:25:48;;;;;;;13.55;6.40;;;;;;;;;;4962063;28;20023;-58
2022/12/26 09:28:14;;;;;;;12.63;6.97;;;;;;;;;;4970566;28;20109;-59
2022/12/26 09:30:39;;;;;;;12.05;7.45;;;;;;;;;;4960861;28;20057;-58
2022/12/26 09:33:06;;;;;;;14.50;7.13;;;;;;;;;;4962928;28;20018;-58
2022/12/26 09:35:32;;;;;;;15.00;8.50;;;;;;;;;;4967439;28;20035;-58
2022/12/26 09:37:57;;;;;;;10.43;7.40;;;;;;;;;;4950119;28;20118;-58
2022/12/26 09:40:25;;;;;;;13.02;7.82;;;;;;;;;;4968119;28;20133;-59
2022/12/26 09:43:26;;;;;;;10.82;7.15;;;;;;;;;;4962593;28;20091;-58
2022/12/26 09:46:06;;;;;;;13.20;6.45;;;;;;;;;;4894490;29;20047;-59
2022/12/26 09:48:50;;;;;;;13.50;7.30;;;;;;;;;;4964826;28;20951;-58
2022/12/26 09:51:15;;;;;;;12.07;7.20;;;;;;;;;;4963536;28;20394;-59
2022/12/26 09:53:42;;;;;;;12.10;7.97;;;;;;;;;;4972102;28;20038;-59
2022/12/26 09:56:13;;;;;;;12.90;7.03;;;;;;;;;;4971500;28;20033;-58
2022/12/26 09:58:51;;;;;;;14.68;8.15;;;;;;;;;;4969708;28;20073;-59
2022/12/26 10:01:19;;;;;;;13.23;7.28;;;;;;;;;;4965593;28;20091;-57
2022/12/26 10:03:46;;;;;;;14.45;8.00;;;;;;;;;;4970262;28;20063;-59
2022/12/26 10:06:12;;;;;;;12.27;7.57;;;;;;;;;;4969333;28;20118;-57
2022/12/26 10:08:41;;;;;;;12.00;7.22;;;;;;;;;;4972917;28;20029;-58
2022/12/26 10:11:14;;;;;;;14.60;8.20;;;;;;;;;;4967351;28;20529;-58
2022/12/26 10:13:46;;;;;;;13.48;8.13;;;;;;;;;;4970436;28;20034;-59
2022/12/26 10:16:17;;;;;;;14.43;8.27;;;;;;;;;;4973557;28;20039;-57
2022/12/26 10:18:57;;;;;;;13.25;8.15;;;;;;;;;;4969159;28;20113;-57
2022/12/26 10:21:22;;;;;;;12.85;8.02;;;;;;;;;;4965613;28;20029;-57
2022/12/26 10:23:50;;;;;;;12.27;7.65;;;;;;;;;;4981047;28;20073;-57
2022/12/26 10:26:23;;;;;;;14.13;7.38;;;;;;;;;;4971659;28;20058;-57
2022/12/26 10:28:54;;;;;;;11.98;7.72;;;;;;;;;;4971770;28;20077;-57
2022/12/26 10:31:33;;;;;;;10.68;7.93;;;;;;;;;;4966831;28;20041;-58
2022/12/26 10:34:02;;;;;;;13.75;8.40;;;;;;;;;;4970633;28;20033;-57
2022/12/26 10:36:33;;;;;;;15.48;9.13;;;;;;;;;;4972933;28;20074;-57
2022/12/26 10:38:59;;;;;;;14.43;9.70;;;;;;;;;;4967161;28;20039;-56
2022/12/26 10:41:27;;;;;;;13.98;9.40;;;;;;;;;;4966726;28;20514;-58
2022/12/26 10:43:52;;;;;;;15.73;9.63;;;;;;;;;;4985997;28;20050;-56
2022/12/26 10:46:27;;;;;;;14.38;9.50;;;;;;;;;;4966948;28;20034;-57
2022/12/26 10:48:52;;;;;;;18.83;11.68;;;;;;;;;;4971148;28;20209;-57
2022/12/26 10:51:18;;;;;;;20.75;15.00;;;;;;;;;;4965670;28;20022;-57
2022/12/26 10:53:48;;;;;;;23.75;15.02;;;;;;;;;;4965266;28;20708;-57
2022/12/26 10:56:14;;;;;;;19.95;13.50;;;;;;;;;;4972679;28;20026;-57
2022/12/26 10:58:39;;;;;;;18.10;12.10;;;;;;;;;;4966278;28;20048;-57
2022/12/26 11:01:23;;;;;;;15.85;10.77;;;;;;;;;;4970870;28;20081;-57
2022/12/26 11:03:59;;;;;;;14.57;9.93;;;;;;;;;;4963722;28;20093;-58
2022/12/26 11:06:30;;;;;;;13.82;8.98;;;;;;;;;;4965465;28;20039;-59
2022/12/26 11:08:55;;;;;;;10.60;7.85;;;;;;;;;;4970404;28;20022;-58
2022/12/26 11:11:44;;;;;;;11.75;8.25;;;;;;;;;;4965862;28;20030;-58
2022/12/26 11:14:24;;;;;;;13.90;10.60;;;;;;;;;;4967448;28;20084;-58
2022/12/26 11:16:49;;;;;;;19.27;12.75;;;;;;;;;;4979413;28;20033;-58
2022/12/26 11:19:28;;;;;;;14.82;10.55;;;;;;;;;;4964260;28;20026;-56
2022/12/26 11:21:56;;;;;;;14.35;10.30;;;;;;;;;;4973436;28;20030;-57
2022/12/26 11:24:21;;;;;;;14.88;9.18;;;;;;;;;;4969319;28;20394;-57
2022/12/26 11:26:47;;;;;;;15.65;8.13;;;;;;;;;;4966479;28;20035;-58
2022/12/26 11:29:12;;;;;;;13.68;7.72;;;;;;;;;;4971742;28;20046;-57
2022/12/26 11:31:41;;;;;;;13.18;8.40;;;;;;;;;;4963608;28;20037;-57
2022/12/26 11:34:14;;;;;;;15.38;11.15;;;;;;;;;;4962287;28;20022;-56
2022/12/26 11:36:44;;;;;;;15.75;9.73;;;;;;;;;;4972399;28;20043;-58
2022/12/26 11:39:25;;;;;;;12.40;8.80;;;;;;;;;;4962993;28;20073;-57
2022/12/26 11:41:51;;;;;;;13.57;7.82;;;;;;;;;;4965416;28;20122;-58
2022/12/26 11:44:32;;;;;;;11.73;8.07;;;;;;;;;;4969043;28;20110;-58
2022/12/26 11:46:57;;;;;;;10.45;7.25;;;;;;;;;;4962721;28;20077;-58
2022/12/26 11:49:22;;;;;;;16.40;9.13;;;;;;;;;;4968829;28;20030;-57
2022/12/26 11:51:48;;;;;;;13.27;7.97;;;;;;;;;;4963297;28;20062;-57
2022/12/26 11:54:23;;;;;;;14.77;8.95;;;;;;;;;;4962782;28;20159;-56
2022/12/26 11:56:58;;;;;;;12.88;8.00;;;;;;;;;;4969373;28;20030;-57
2022/12/26 11:59:23;;;;;;;15.15;8.75;;;;;;;;;;4962385;28;20031;-55
2022/12/26 12:02:01;;;;;;;14.02;7.38;;;;;;;;;;4971217;28;20026;-57
2022/12/26 12:04:26;;;;;;;12.30;6.50;;;;;;;;;;4968655;28;20041;-56
2022/12/26 12:07:00;;;;;;;9.30;5.88;;;;;;;;;;4967425;28;20030;-58
2022/12/26 12:09:40;;;;;;;9.23;5.90;;;;;;;;;;4984700;28;20181;-57
2022/12/26 12:12:10;;;;;;;13.25;7.55;;;;;;;;;;4966727;28;20035;-58
2022/12/26 12:14:45;;;;;;;12.90;7.15;;;;;;;;;;4979045;28;20026;-58
2022/12/26 12:17:29;;;;;;;12.40;7.53;;;;;;;;;;4968624;28;20027;-55
2022/12/26 12:20:28;;;;;;;9.18;6.13;;;;;;;;;;4963996;28;20397;-56
2022/12/26 12:22:57;;;;;;;11.48;7.00;;;;;;;;;;4956736;28;20050;-56
2022/12/26 12:25:30;;;;;;;16.00;10.18;;;;;;;;;;4983928;28;20034;-57
2022/12/26 12:27:59;;;;;;;18.30;8.63;;;;;;;;;;4967806;28;20109;-56
2022/12/26 12:30:24;;;;;;;20.20;11.82;;;;;;;;;;4958983;28;20134;-56
2022/12/26 12:32:59;;;;;;;16.45;11.82;;;;;;;;;;4966504;28;20030;-56
2022/12/26 12:35:43;;;;;;;16.92;12.35;;;;;;;;;;4960953;28;20045;-56
2022/12/26 12:38:20;;;;;;;16.75;10.23;;;;;;;;;;4967926;28;20089;-57
2022/12/26 12:40:45;;;;;;;9.75;6.60;;;;;;;;;;4965054;28;20035;-58
2022/12/26 12:43:30;;;;;;;8.85;5.93;;;;;;;;;;4961736;28;20056;-57
2022/12/26 12:46:00;;;;;;;11.43;6.63;;;;;;;;;;4968990;28;20073;-57
2022/12/26 12:48:44;;;;;;;15.93;12.77;;;;;;;;;;4960197;28;20027;-57
2022/12/26 12:51:19;;;;;;;8.60;5.13;;;;;;;;;;4970533;28;20033;-58
2022/12/26 12:53:45;;;;;;;13.32;8.20;;;;;;;;;;4968543;28;20034;-56
2022/12/26 12:56:21;;;;;;;11.40;5.63;;;;;;;;;;4961835;28;20037;-55
2022/12/26 12:58:53;;;;;;;8.35;4.80;;;;;;;;;;4962017;28;20046;-57
2022/12/26 13:01:26;;;;;;;14.50;8.95;;;;;;;;;;4963462;28;20454;-54
2022/12/26 13:04:09;;;;;;;30.50;18.05;;;;;;;;;;4970274;28;20047;-56
2022/12/26 13:06:45;;;;;;;16.13;9.50;;;;;;;;;;4967898;28;20054;-57
2022/12/26 13:09:21;;;;;;;11.57;6.65;;;;;;;;;;4980590;28;20039;-56
2022/12/26 13:11:54;;;;;;;15.93;8.55;;;;;;;;;;4972202;28;20034;-56
2022/12/26 13:14:38;;;;;;;12.95;6.07;;;;;;;;;;4968327;28;20031;-57
2022/12/26 13:17:13;;;;;;;8.55;5.05;;;;;;;;;;4967135;28;20038;-55
2022/12/26 13:19:55;;;;;;;5.13;3.30;;;;;;;;;;4981026;28;20489;-56
2022/12/26 13:22:25;;;;;;;7.68;4.53;;;;;;;;;;4969738;28;20058;-57
2022/12/26 13:24:55;;;;;;;8.43;4.18;;;;;;;;;;4964443;28;20129;-56
2022/12/26 13:27:23;;;;;;;10.88;6.47;;;;;;;;;;4971504;28;20034;-57
2022/12/26 13:29:49;;;;;;;12.60;7.57;;;;;;;;;;4966268;28;20116;-56
2022/12/26 13:32:28;;;;;;;8.82;5.78;;;;;;;;;;4969620;28;20126;-57
2022/12/26 13:34:55;;;;;;;7.60;4.63;;;;;;;;;;4967223;28;21409;-57
2022/12/26 13:37:38;;;;;;;9.35;6.03;;;;;;;;;;4965607;28;20030;-56
2022/12/26 13:40:10;;;;;;;9.45;5.90;;;;;;;;;;4971129;28;20727;-55
2022/12/26 13:45:32;;;;;;;4.93;3.15;;;;;;;;;;4969172;28;20042;-56
2022/12/26 13:47:58;;;;;;;6.82;3.15;;;;;;;;;;4972390;28;20058;-57
2022/12/26 13:50:46;;;;;;;6.68;3.80;;;;;;;;;;4969977;28;20757;-57
2022/12/26 13:53:24;;;;;;;8.27;5.63;;;;;;;;;;4967374;28;20034;-57
2022/12/26 13:55:56;;;;;;;16.50;4.72;;;;;;;;;;4961052;28;20057;-59
2022/12/26 13:58:37;;;;;;;11.32;5.20;;;;;;;;;;4964401;28;20061;-56
2022/12/26 14:01:11;;;;;;;7.95;4.07;;;;;;;;;;4970003;28;20027;-57
2022/12/26 14:03:46;;;;;;;6.10;3.22;;;;;;;;;;4964179;28;20034;-57
2022/12/26 14:06:15;;;;;;;6.07;3.00;;;;;;;;;;4965404;28;20061;-56
2022/12/26 14:08:44;;;;;;;4.93;2.60;;;;;;;;;;4985264;28;20073;-57
2022/12/26 14:11:16;;;;;;;5.30;3.42;;;;;;;;;;4979495;28;20581;-57
2022/12/26 14:13:54;;;;;;;6.57;3.40;;;;;;;;;;4964419;28;20430;-56
2022/12/26 14:16:38;;;;;;;4.40;2.88;;;;;;;;;;4967698;28;20023;-57
2022/12/26 14:19:03;;;;;;;4.50;3.00;;;;;;;;;;4966979;28;20062;-57
2022/12/26 14:21:32;;;;;;;3.80;2.60;;;;;;;;;;4968099;28;21065;-57
2022/12/26 14:24:00;;;;;;;3.67;2.33;;;;;;;;;;4967599;28;20137;-57
2022/12/26 14:26:38;;;;;;;4.95;2.70;;;;;;;;;;4966027;28;20679;-57
2022/12/26 14:29:22;;;;;;;5.80;2.67;;;;;;;;;;4971520;28;20031;-57
2022/12/26 14:32:06;;;;;;;7.35;3.70;;;;;;;;;;4969078;28;20508;-54
2022/12/26 14:34:46;;;;;;;5.93;2.78;;;;;;;;;;4965035;28;20666;-58
2022/12/26 14:37:24;;;;;;;4.85;2.40;;;;;;;;;;4971719;28;21851;-56
2022/12/26 14:40:01;;;;;;;6.10;3.00;;;;;;;;;;4964184;28;20033;-56
2022/12/26 14:45:31;;;;;;;2.95;1.90;;;;;;;;;;4970148;28;20105;-57
2022/12/26 14:47:57;;;;;;;4.40;2.33;;;;;;;;;;4968114;28;20046;-58
2022/12/26 14:50:31;;;;;;;3.78;2.28;;;;;;;;;;4965668;28;20038;-58
2022/12/26 14:53:16;;;;;;;5.45;2.90;;;;;;;;;;4969176;28;20089;-57
2022/12/26 14:55:44;;;;;;;7.78;4.07;;;;;;;;;;4978893;28;20193;-56
2022/12/26 14:58:25;;;;;;;4.38;2.85;;;;;;;;;;4964418;28;20038;-56
2022/12/26 15:00:51;;;;;;;3.75;2.55;;;;;;;;;;4970748;28;20083;-58
2022/12/26 15:03:39;;;;;;;4.43;2.40;;;;;;;;;;4966923;28;20421;-57
2022/12/26 15:06:19;;;;;;;4.10;2.60;;;;;;;;;;4962540;28;20042;-57
2022/12/26 15:08:47;;;;;;;5.28;2.58;;;;;;;;;;4970222;28;20505;-57
2022/12/26 15:11:37;;;;;;;3.50;2.38;;;;;;;;;;4965419;28;20026;-55
2022/12/26 15:14:17;;;;;;;2.95;2.05;;;;;;;;;;4966466;28;20042;-56
2022/12/26 15:16:43;;;;;;;3.80;2.00;;;;;;;;;;4971588;28;20073;-56
2022/12/26 15:19:08;;;;;;;4.43;2.20;;;;;;;;;;4963399;28;20105;-54
2022/12/26 15:21:45;;;;;;;3.53;2.30;;;;;;;;;;4966255;28;20033;-57
2022/12/26 15:24:10;;;;;;;4.05;2.00;;;;;;;;;;4966431;28;20061;-55
2022/12/26 15:26:35;;;;;;;3.85;2.50;;;;;;;;;;4966391;28;20486;-58
2022/12/26 15:29:19;;;;;;;4.22;2.70;;;;;;;;;;4968498;28;20030;-56
2022/12/26 15:31:44;;;;;;;3.60;2.10;;;;;;;;;;4967319;28;20039;-57
2022/12/26 15:34:09;;;;;;;5.28;2.20;;;;;;;;;;4970132;28;20038;-58
2022/12/26 15:36:45;;;;;;;4.18;2.60;;;;;;;;;;4974382;28;20069;-56
2022/12/26 15:39:19;;;;;;;5.97;3.13;;;;;;;;;;4967319;28;20027;-56
2022/12/26 15:41:56;;;;;;;4.22;2.38;;;;;;;;;;4969486;28;20084;-55
2022/12/26 15:44:21;;;;;;;;;;;;;;;;;;4967387;28;20068;-54
2022/12/26 15:46:53;;;;;;;2.80;2.07;;;;;;;;;;4966385;28;20241;-55
2022/12/26 15:49:21;;;;;;;3.28;2.00;;;;;;;;;;4969909;28;20572;-55
2022/12/26 15:52:05;;;;;;;3.58;2.50;;;;;;;;;;4962586;28;20034;-56
2022/12/26 15:54:49;;;;;;;3.25;2.00;;;;;;;;;;4961515;28;20038;-57
2022/12/26 15:57:14;;;;;;;4.28;2.22;;;;;;;;;;4976641;28;20037;-57
2022/12/26 16:00:02;;;;;;;4.85;2.58;;;;;;;;;;4967060;28;20234;-56
2022/12/26 16:02:40;;;;;;;5.03;2.10;;;;;;;;;;4964155;28;20121;-56
2022/12/26 16:05:05;;;;;;;3.95;2.30;;;;;;;;;;4974353;28;20030;-54
2022/12/26 16:07:40;;;;;;;3.97;2.28;;;;;;;;;;4969347;28;20030;-55
2022/12/26 16:10:26;;;;;;;4.22;2.35;;;;;;;;;;4972479;28;20139;-54
2022/12/26 16:13:02;;;;;;;2.70;1.98;;;;;;;;;;4964858;28;20775;-56
2022/12/26 16:15:29;;;;;;;7.70;2.40;;;;;;;;;;4966386;28;20245;-56
2022/12/26 16:18:10;;;;;;;6.07;2.10;;;;;;;;;;4974590;28;20053;-54
2022/12/26 16:23:22;;;;;;;3.92;2.20;;;;;;;;;;4967022;28;20735;-54
2022/12/26 16:25:47;;;;;;;;;;;;;;;;;;4969043;28;20110;-56
2022/12/26 16:28:12;;;;;;;3.47;2.10;;;;;;;;;;4965994;28;20894;-56
2022/12/26 16:30:38;;;;;;;2.80;1.80;;;;;;;;;;4971894;28;20126;-57
2022/12/26 16:33:04;;;;;;;2.85;1.80;;;;;;;;;;4972267;28;20026;-58
2022/12/26 16:35:33;;;;;;;3.50;1.90;;;;;;;;;;4961087;28;20042;-53
2022/12/26 16:38:00;;;;;;;3.33;2.10;;;;;;;;;;4972503;28;20037;-57
2022/12/26 16:40:42;;;;;;;3.63;2.13;;;;;;;;;;4967628;28;20031;-56
2022/12/26 16:43:19;;;;;;;3.38;2.00;;;;;;;;;;4965344;28;20477;-56
2022/12/26 16:45:46;;;;;;;4.70;2.70;;;;;;;;;;4986218;28;20138;-57
2022/12/26 16:48:16;;;;;;;10.65;5.75;;;;;;;;;;4965900;28;20097;-57
2022/12/26 16:50:54;;;;;;;3.92;2.42;;;;;;;;;;4974555;28;20477;-55
2022/12/26 16:53:22;;;;;;;4.43;2.22;;;;;;;;;;4976225;28;20630;-55